sensor_id;sensor_type;location;lat;lon;timestamp;pressure;altitude;pressure_sealevel;temperature;humidity
55576;BME280;41437;45.478;9.116;2023-04-09T00:02:43;100059.13;;;9.25;nan
55576;BME280;41437;45.478;9.116;2023-04-09T00:05:45;100062.97;;;9.24;nan
55576;BME280;41437;45.478;9.116;2023-04-09T00:08:49;100061.19;;;9.18;nan
55576;BME280;41437;45.478;9.116;2023-04-09T00:14:53;100046.38;;;9.19;nan
55576;BME280;41437;45.478;9.116;2023-04-09T00:21:56;100055.22;;;9.21;nan
55576;BME280;41437;45.478;9.116;2023-04-09T00:25:00;100053.72;;;9.30;nan
55576;BME280;41437;45.478;9.116;2023-04-09T00:31:16;100053.97;;;9.28;nan
55576;BME280;41437;45.478;9.116;2023-04-09T00:34:18;100045.22;;;9.31;nan
55576;BME280;41437;45.478;9.116;2023-04-09T00:40:22;100042.03;;;9.23;nan
55576;BME280;41437;45.478;9.116;2023-04-09T00:43:24;100038.47;;;9.22;nan
55576;BME280;41437;45.478;9.116;2023-04-09T00:46:26;100044.56;;;9.24;nan
55576;BME280;41437;45.478;9.116;2023-04-09T00:49:27;100043.66;;;9.19;nan
55576;BME280;41437;45.478;9.116;2023-04-09T00:52:31;100050.84;;;9.37;nan
55576;BME280;41437;45.478;9.116;2023-04-09T00:55:34;100054.91;;;9.34;nan
55576;BME280;41437;45.478;9.116;2023-04-09T00:58:36;100052.06;;;9.29;nan
55576;BME280;41437;45.478;9.116;2023-04-09T01:04:40;100049.81;;;9.26;nan
55576;BME280;41437;45.478;9.116;2023-04-09T01:07:55;100052.41;;;9.32;nan
55576;BME280;41437;45.478;9.116;2023-04-09T01:11:05;100056.31;;;9.20;nan
55576;BME280;41437;45.478;9.116;2023-04-09T01:14:14;100052.13;;;9.17;nan
55576;BME280;41437;45.478;9.116;2023-04-09T01:17:23;100053.28;;;9.21;nan
55576;BME280;41437;45.478;9.116;2023-04-09T01:20:31;100057.38;;;9.19;nan
55576;BME280;41437;45.478;9.116;2023-04-09T01:23:44;100050.09;;;9.13;nan
55576;BME280;41437;45.478;9.116;2023-04-09T01:26:54;100062.19;;;9.12;nan
55576;BME280;41437;45.478;9.116;2023-04-09T01:29:59;100059.44;;;9.12;nan
55576;BME280;41437;45.478;9.116;2023-04-09T01:33:05;100059.84;;;9.03;nan
55576;BME280;41437;45.478;9.116;2023-04-09T01:36:06;100056.44;;;9.13;nan
55576;BME280;41437;45.478;9.116;2023-04-09T01:39:08;100049.56;;;8.99;nan
55576;BME280;41437;45.478;9.116;2023-04-09T01:42:11;100069.00;;;9.09;nan
55576;BME280;41437;45.478;9.116;2023-04-09T01:45:15;100069.25;;;9.07;nan
55576;BME280;41437;45.478;9.116;2023-04-09T01:48:17;100068.56;;;9.00;nan
55576;BME280;41437;45.478;9.116;2023-04-09T01:51:20;100074.75;;;9.07;nan
55576;BME280;41437;45.478;9.116;2023-04-09T01:54:21;100073.47;;;8.98;nan
55576;BME280;41437;45.478;9.116;2023-04-09T01:57:23;100071.22;;;8.95;nan
55576;BME280;41437;45.478;9.116;2023-04-09T02:00:41;100074.31;;;8.99;nan
55576;BME280;41437;45.478;9.116;2023-04-09T02:03:47;100078.38;;;8.96;nan
55576;BME280;41437;45.478;9.116;2023-04-09T02:06:56;100076.97;;;8.94;nan
55576;BME280;41437;45.478;9.116;2023-04-09T02:09:59;100076.19;;;9.10;nan
55576;BME280;41437;45.478;9.116;2023-04-09T02:16:07;100080.06;;;8.97;nan
55576;BME280;41437;45.478;9.116;2023-04-09T02:19:09;100067.16;;;8.98;nan
55576;BME280;41437;45.478;9.116;2023-04-09T02:25:14;100083.63;;;8.98;nan
55576;BME280;41437;45.478;9.116;2023-04-09T02:28:16;100077.63;;;9.01;nan
55576;BME280;41437;45.478;9.116;2023-04-09T02:34:20;100071.75;;;8.80;nan
55576;BME280;41437;45.478;9.116;2023-04-09T02:40:23;100083.41;;;8.88;nan
55576;BME280;41437;45.478;9.116;2023-04-09T02:43:25;100084.28;;;8.88;nan
55576;BME280;41437;45.478;9.116;2023-04-09T02:52:31;100090.72;;;8.82;nan
55576;BME280;41437;45.478;9.116;2023-04-09T02:55:33;100085.13;;;8.77;nan
55576;BME280;41437;45.478;9.116;2023-04-09T02:58:35;100082.88;;;8.74;nan
55576;BME280;41437;45.478;9.116;2023-04-09T03:01:37;100090.53;;;8.72;nan
55576;BME280;41437;45.478;9.116;2023-04-09T03:04:39;100086.94;;;8.71;nan
55576;BME280;41437;45.478;9.116;2023-04-09T03:07:40;100084.69;;;8.68;nan
55576;BME280;41437;45.478;9.116;2023-04-09T03:10:42;100090.16;;;8.80;nan
55576;BME280;41437;45.478;9.116;2023-04-09T03:13:45;100086.22;;;8.76;nan
55576;BME280;41437;45.478;9.116;2023-04-09T03:16:48;100091.84;;;8.69;nan
55576;BME280;41437;45.478;9.116;2023-04-09T03:19:50;100085.16;;;8.65;nan
55576;BME280;41437;45.478;9.116;2023-04-09T03:22:51;100084.81;;;8.62;nan
55576;BME280;41437;45.478;9.116;2023-04-09T03:26:00;100087.69;;;8.55;nan
55576;BME280;41437;45.478;9.116;2023-04-09T03:32:05;100085.94;;;8.49;nan
55576;BME280;41437;45.478;9.116;2023-04-09T03:35:07;100089.16;;;8.46;nan
55576;BME280;41437;45.478;9.116;2023-04-09T03:41:26;100095.47;;;8.46;nan
55576;BME280;41437;45.478;9.116;2023-04-09T03:50:37;100099.66;;;8.37;nan
55576;BME280;41437;45.478;9.116;2023-04-09T03:53:38;100100.09;;;8.34;nan
55576;BME280;41437;45.478;9.116;2023-04-09T03:56:41;100096.53;;;8.34;nan
55576;BME280;41437;45.478;9.116;2023-04-09T04:02:45;100094.59;;;8.34;nan
55576;BME280;41437;45.478;9.116;2023-04-09T04:05:49;100107.19;;;8.42;nan
55576;BME280;41437;45.478;9.116;2023-04-09T04:08:51;100108.84;;;8.43;nan
55576;BME280;41437;45.478;9.116;2023-04-09T04:11:53;100104.50;;;8.35;nan
55576;BME280;41437;45.478;9.116;2023-04-09T04:14:56;100102.97;;;8.39;nan
55576;BME280;41437;45.478;9.116;2023-04-09T04:17:59;100100.94;;;8.35;nan
55576;BME280;41437;45.478;9.116;2023-04-09T04:21:02;100116.81;;;8.44;nan
55576;BME280;41437;45.478;9.116;2023-04-09T04:24:04;100100.72;;;8.36;nan
55576;BME280;41437;45.478;9.116;2023-04-09T04:27:05;100108.94;;;8.36;nan
55576;BME280;41437;45.478;9.116;2023-04-09T04:33:12;100111.91;;;8.35;nan
55576;BME280;41437;45.478;9.116;2023-04-09T04:36:14;100116.44;;;8.17;nan
55576;BME280;41437;45.478;9.116;2023-04-09T04:39:16;100112.03;;;8.04;nan
55576;BME280;41437;45.478;9.116;2023-04-09T04:42:19;100114.19;;;8.02;nan
55576;BME280;41437;45.478;9.116;2023-04-09T04:45:22;100119.78;;;7.96;nan
55576;BME280;41437;45.478;9.116;2023-04-09T04:48:25;100124.44;;;7.95;nan
55576;BME280;41437;45.478;9.116;2023-04-09T04:51:29;100124.34;;;8.02;nan
55576;BME280;41437;45.478;9.116;2023-04-09T04:54:32;100135.78;;;7.99;nan
55576;BME280;41437;45.478;9.116;2023-04-09T04:57:34;100126.31;;;7.83;nan
55576;BME280;41437;45.478;9.116;2023-04-09T05:00:36;100132.84;;;7.70;nan
55576;BME280;41437;45.478;9.116;2023-04-09T05:03:39;100136.28;;;7.66;nan
55576;BME280;41437;45.478;9.116;2023-04-09T05:06:40;100147.88;;;7.68;nan
55576;BME280;41437;45.478;9.116;2023-04-09T05:09:42;100146.72;;;7.75;nan
55576;BME280;41437;45.478;9.116;2023-04-09T05:12:45;100149.41;;;7.64;nan
55576;BME280;41437;45.478;9.116;2023-04-09T05:15:46;100158.53;;;7.46;nan
55576;BME280;41437;45.478;9.116;2023-04-09T05:18:50;100165.31;;;7.43;nan
55576;BME280;41437;45.478;9.116;2023-04-09T05:21:51;100161.84;;;7.36;nan
55576;BME280;41437;45.478;9.116;2023-04-09T05:24:53;100167.91;;;7.38;nan
55576;BME280;41437;45.478;9.116;2023-04-09T05:27:55;100167.59;;;7.46;nan
55576;BME280;41437;45.478;9.116;2023-04-09T05:30:56;100158.09;;;7.61;nan
55576;BME280;41437;45.478;9.116;2023-04-09T05:37:01;100172.63;;;7.91;nan
55576;BME280;41437;45.478;9.116;2023-04-09T05:43:04;100178.72;;;8.05;nan
55576;BME280;41437;45.478;9.116;2023-04-09T05:46:06;100174.69;;;8.07;nan
55576;BME280;41437;45.478;9.116;2023-04-09T05:49:09;100174.59;;;8.14;nan
55576;BME280;41437;45.478;9.116;2023-04-09T05:52:13;100188.41;;;8.07;nan
55576;BME280;41437;45.478;9.116;2023-04-09T05:55:15;100181.38;;;8.12;nan
55576;BME280;41437;45.478;9.116;2023-04-09T06:01:19;100185.69;;;8.78;nan
55576;BME280;41437;45.478;9.116;2023-04-09T06:04:22;100175.88;;;9.05;nan
55576;BME280;41437;45.478;9.116;2023-04-09T06:07:23;100187.00;;;9.39;nan
55576;BME280;41437;45.478;9.116;2023-04-09T06:10:39;100181.53;;;9.85;nan
55576;BME280;41437;45.478;9.116;2023-04-09T06:16:48;100194.81;;;11.32;nan
55576;BME280;41437;45.478;9.116;2023-04-09T06:23:13;100212.00;;;12.80;nan
55576;BME280;41437;45.478;9.116;2023-04-09T06:29:51;100221.72;;;14.59;nan
55576;BME280;41437;45.478;9.116;2023-04-09T06:32:57;100207.47;;;15.01;nan
55576;BME280;41437;45.478;9.116;2023-04-09T06:43:40;100229.34;;;15.33;nan
55576;BME280;41437;45.478;9.116;2023-04-09T06:46:57;100217.53;;;15.62;nan
55576;BME280;41437;45.478;9.116;2023-04-09T06:50:09;100223.00;;;15.18;nan
55576;BME280;41437;45.478;9.116;2023-04-09T06:53:11;100219.59;;;15.41;nan
55576;BME280;41437;45.478;9.116;2023-04-09T06:56:13;100224.28;;;15.51;nan
55576;BME280;41437;45.478;9.116;2023-04-09T06:59:16;100234.50;;;15.61;nan
55576;BME280;41437;45.478;9.116;2023-04-09T07:02:19;100227.94;;;15.41;nan
55576;BME280;41437;45.478;9.116;2023-04-09T07:05:23;100229.63;;;15.27;nan
55576;BME280;41437;45.478;9.116;2023-04-09T07:11:31;100226.13;;;14.65;nan
55576;BME280;41437;45.478;9.116;2023-04-09T07:17:35;100227.22;;;14.79;nan
55576;BME280;41437;45.478;9.116;2023-04-09T07:20:36;100224.75;;;14.68;nan
55576;BME280;41437;45.478;9.116;2023-04-09T07:23:38;100232.47;;;14.40;nan
55576;BME280;41437;45.478;9.116;2023-04-09T07:26:40;100245.78;;;14.23;nan
55576;BME280;41437;45.478;9.116;2023-04-09T07:32:46;100241.28;;;13.81;nan
55576;BME280;41437;45.478;9.116;2023-04-09T07:35:47;100237.94;;;13.84;nan
55576;BME280;41437;45.478;9.116;2023-04-09T07:38:49;100244.06;;;14.01;nan
55576;BME280;41437;45.478;9.116;2023-04-09T07:44:53;100243.00;;;14.07;nan
55576;BME280;41437;45.478;9.116;2023-04-09T07:50:58;100246.88;;;14.06;nan
55576;BME280;41437;45.478;9.116;2023-04-09T07:57:01;100267.44;;;14.46;nan
55576;BME280;41437;45.478;9.116;2023-04-09T08:00:05;100263.56;;;14.57;nan
55576;BME280;41437;45.478;9.116;2023-04-09T08:03:07;100263.84;;;14.71;nan
55576;BME280;41437;45.478;9.116;2023-04-09T08:06:10;100270.78;;;14.53;nan
55576;BME280;41437;45.478;9.116;2023-04-09T08:09:13;100271.03;;;14.42;nan
55576;BME280;41437;45.478;9.116;2023-04-09T08:12:15;100270.16;;;14.21;nan
55576;BME280;41437;45.478;9.116;2023-04-09T08:15:18;100270.25;;;14.56;nan
55576;BME280;41437;45.478;9.116;2023-04-09T08:18:20;100268.03;;;14.64;nan
55576;BME280;41437;45.478;9.116;2023-04-09T08:21:23;100267.44;;;14.67;nan
55576;BME280;41437;45.478;9.116;2023-04-09T08:30:31;100269.31;;;14.05;nan
55576;BME280;41437;45.478;9.116;2023-04-09T08:33:33;100270.94;;;13.96;nan
55576;BME280;41437;45.478;9.116;2023-04-09T08:36:35;100278.09;;;13.81;nan
55576;BME280;41437;45.478;9.116;2023-04-09T08:39:36;100273.38;;;13.77;nan
55576;BME280;41437;45.478;9.116;2023-04-09T08:42:42;100276.78;;;14.04;nan
55576;BME280;41437;45.478;9.116;2023-04-09T08:45:46;100272.66;;;14.27;nan
55576;BME280;41437;45.478;9.116;2023-04-09T08:48:49;100269.41;;;14.56;nan
55576;BME280;41437;45.478;9.116;2023-04-09T08:51:51;100271.91;;;14.93;nan
55576;BME280;41437;45.478;9.116;2023-04-09T08:54:52;100270.78;;;14.99;nan
55576;BME280;41437;45.478;9.116;2023-04-09T08:57:54;100278.28;;;14.78;nan
55576;BME280;41437;45.478;9.116;2023-04-09T09:00:57;100277.16;;;14.79;nan
55576;BME280;41437;45.478;9.116;2023-04-09T09:07:05;100283.53;;;15.16;nan
55576;BME280;41437;45.478;9.116;2023-04-09T09:13:20;100280.38;;;16.13;nan
55576;BME280;41437;45.478;9.116;2023-04-09T09:16:23;100283.28;;;16.37;nan
55576;BME280;41437;45.478;9.116;2023-04-09T09:19:28;100284.09;;;16.81;nan
55576;BME280;41437;45.478;9.116;2023-04-09T09:22:47;100280.88;;;17.51;nan
55576;BME280;41437;45.478;9.116;2023-04-09T09:35:01;100282.22;;;16.67;nan
55576;BME280;41437;45.478;9.116;2023-04-09T09:38:03;100275.19;;;16.79;nan
55576;BME280;41437;45.478;9.116;2023-04-09T09:44:30;100272.81;;;17.26;nan
55576;BME280;41437;45.478;9.116;2023-04-09T09:47:34;100263.69;;;17.20;nan
55576;BME280;41437;45.478;9.116;2023-04-09T09:56:44;100256.50;;;16.85;nan
55576;BME280;41437;45.478;9.116;2023-04-09T09:59:49;100248.00;;;16.32;nan
55576;BME280;41437;45.478;9.116;2023-04-09T10:02:56;100253.75;;;16.01;nan
55576;BME280;41437;45.478;9.116;2023-04-09T10:09:04;100259.38;;;16.36;nan
55576;BME280;41437;45.478;9.116;2023-04-09T10:12:06;100255.28;;;16.23;nan
55576;BME280;41437;45.478;9.116;2023-04-09T10:15:10;100254.59;;;16.46;nan
55576;BME280;41437;45.478;9.116;2023-04-09T10:18:16;100251.34;;;16.34;nan
55576;BME280;41437;45.478;9.116;2023-04-09T10:21:25;100251.72;;;16.17;nan
55576;BME280;41437;45.478;9.116;2023-04-09T10:24:29;100254.16;;;16.97;nan
55576;BME280;41437;45.478;9.116;2023-04-09T10:27:31;100245.19;;;17.29;nan
55576;BME280;41437;45.478;9.116;2023-04-09T10:30:34;100238.81;;;17.00;nan
55576;BME280;41437;45.478;9.116;2023-04-09T10:33:42;100241.75;;;16.84;nan
55576;BME280;41437;45.478;9.116;2023-04-09T10:36:43;100235.78;;;16.96;nan
55576;BME280;41437;45.478;9.116;2023-04-09T10:39:46;100240.19;;;17.02;nan
55576;BME280;41437;45.478;9.116;2023-04-09T10:45:50;100230.91;;;18.22;nan
55576;BME280;41437;45.478;9.116;2023-04-09T10:52:13;100225.84;;;18.05;nan
55576;BME280;41437;45.478;9.116;2023-04-09T10:55:35;100223.56;;;17.88;nan
55576;BME280;41437;45.478;9.116;2023-04-09T10:58:37;100216.66;;;17.62;nan
55576;BME280;41437;45.478;9.116;2023-04-09T11:01:38;100214.25;;;17.07;nan
55576;BME280;41437;45.478;9.116;2023-04-09T11:05:00;100210.72;;;16.67;nan
55576;BME280;41437;45.478;9.116;2023-04-09T11:08:07;100201.75;;;16.41;nan
55576;BME280;41437;45.478;9.116;2023-04-09T11:14:18;100194.31;;;15.97;nan
55576;BME280;41437;45.478;9.116;2023-04-09T11:17:19;100186.00;;;15.92;nan
55576;BME280;41437;45.478;9.116;2023-04-09T11:20:23;100189.88;;;15.96;nan
55576;BME280;41437;45.478;9.116;2023-04-09T11:23:26;100183.47;;;16.35;nan
55576;BME280;41437;45.478;9.116;2023-04-09T11:26:34;100192.09;;;17.21;nan
55576;BME280;41437;45.478;9.116;2023-04-09T11:32:37;100186.44;;;18.12;nan
55576;BME280;41437;45.478;9.116;2023-04-09T11:35:42;100188.91;;;18.65;nan
55576;BME280;41437;45.478;9.116;2023-04-09T11:57:02;100158.47;;;18.82;nan
55576;BME280;41437;45.478;9.116;2023-04-09T12:03:09;100154.22;;;18.84;nan
55576;BME280;41437;45.478;9.116;2023-04-09T12:06:13;100139.31;;;18.29;nan
55576;BME280;41437;45.478;9.116;2023-04-09T12:09:15;100152.69;;;18.92;nan
55576;BME280;41437;45.478;9.116;2023-04-09T12:12:17;100153.31;;;19.17;nan
55576;BME280;41437;45.478;9.116;2023-04-09T12:15:20;100145.94;;;18.33;nan
55576;BME280;41437;45.478;9.116;2023-04-09T12:21:25;100142.38;;;18.27;nan
55576;BME280;41437;45.478;9.116;2023-04-09T12:24:27;100149.41;;;18.06;nan
55576;BME280;41437;45.478;9.116;2023-04-09T12:30:31;100142.25;;;17.43;nan
55576;BME280;41437;45.478;9.116;2023-04-09T12:33:32;100148.47;;;17.35;nan
55576;BME280;41437;45.478;9.116;2023-04-09T12:36:40;100149.28;;;17.97;nan
55576;BME280;41437;45.478;9.116;2023-04-09T12:42:44;100146.00;;;17.76;nan
55576;BME280;41437;45.478;9.116;2023-04-09T12:45:46;100144.38;;;17.89;nan
55576;BME280;41437;45.478;9.116;2023-04-09T12:48:47;100131.56;;;17.69;nan
55576;BME280;41437;45.478;9.116;2023-04-09T12:51:50;100131.50;;;17.55;nan
55576;BME280;41437;45.478;9.116;2023-04-09T12:54:52;100127.56;;;17.56;nan
55576;BME280;41437;45.478;9.116;2023-04-09T13:00:54;100120.94;;;17.52;nan
55576;BME280;41437;45.478;9.116;2023-04-09T13:03:57;100121.94;;;17.80;nan
55576;BME280;41437;45.478;9.116;2023-04-09T13:06:59;100124.31;;;18.06;nan
55576;BME280;41437;45.478;9.116;2023-04-09T13:10:01;100111.56;;;18.19;nan
55576;BME280;41437;45.478;9.116;2023-04-09T13:13:02;100111.53;;;18.38;nan
55576;BME280;41437;45.478;9.116;2023-04-09T13:16:05;100106.81;;;17.87;nan
55576;BME280;41437;45.478;9.116;2023-04-09T13:19:07;100101.34;;;17.20;nan
55576;BME280;41437;45.478;9.116;2023-04-09T13:22:11;100098.03;;;17.37;nan
55576;BME280;41437;45.478;9.116;2023-04-09T13:25:14;100088.00;;;18.11;nan
55576;BME280;41437;45.478;9.116;2023-04-09T13:43:27;100078.53;;;20.53;nan
55576;BME280;41437;45.478;9.116;2023-04-09T13:46:29;100073.66;;;19.69;nan
55576;BME280;41437;45.478;9.116;2023-04-09T13:49:31;100068.69;;;18.89;nan
55576;BME280;41437;45.478;9.116;2023-04-09T13:52:33;100060.41;;;18.56;nan
55576;BME280;41437;45.478;9.116;2023-04-09T13:55:35;100049.25;;;18.42;nan
55576;BME280;41437;45.478;9.116;2023-04-09T13:58:36;100057.53;;;18.75;nan
55576;BME280;41437;45.478;9.116;2023-04-09T14:01:38;100048.84;;;19.04;nan
55576;BME280;41437;45.478;9.116;2023-04-09T14:04:40;100041.28;;;19.04;nan
55576;BME280;41437;45.478;9.116;2023-04-09T14:07:42;100030.00;;;19.09;nan
55576;BME280;41437;45.478;9.116;2023-04-09T14:13:48;100040.19;;;19.78;nan
55576;BME280;41437;45.478;9.116;2023-04-09T14:16:50;100032.03;;;19.68;nan
55576;BME280;41437;45.478;9.116;2023-04-09T14:19:55;100033.06;;;19.94;nan
55576;BME280;41437;45.478;9.116;2023-04-09T14:22:59;100037.25;;;19.83;nan
55576;BME280;41437;45.478;9.116;2023-04-09T14:26:01;100033.94;;;20.03;nan
55576;BME280;41437;45.478;9.116;2023-04-09T14:29:03;100021.13;;;20.11;nan
55576;BME280;41437;45.478;9.116;2023-04-09T14:32:05;100025.75;;;20.07;nan
55576;BME280;41437;45.478;9.116;2023-04-09T14:41:12;100024.78;;;20.12;nan
55576;BME280;41437;45.478;9.116;2023-04-09T14:44:13;100016.44;;;20.20;nan
55576;BME280;41437;45.478;9.116;2023-04-09T14:47:15;100017.91;;;20.18;nan
55576;BME280;41437;45.478;9.116;2023-04-09T14:50:17;100017.81;;;20.31;nan
55576;BME280;41437;45.478;9.116;2023-04-09T14:53:19;100021.19;;;20.20;nan
55576;BME280;41437;45.478;9.116;2023-04-09T14:56:21;100013.59;;;20.12;nan
55576;BME280;41437;45.478;9.116;2023-04-09T14:59:24;100005.25;;;19.30;nan
55576;BME280;41437;45.478;9.116;2023-04-09T15:05:27;100011.91;;;19.79;nan
55576;BME280;41437;45.478;9.116;2023-04-09T15:08:30;100010.41;;;19.59;nan
55576;BME280;41437;45.478;9.116;2023-04-09T15:11:31;100001.19;;;18.87;nan
55576;BME280;41437;45.478;9.116;2023-04-09T15:14:34;100005.50;;;19.43;nan
55576;BME280;41437;45.478;9.116;2023-04-09T15:20:37;100002.50;;;19.75;nan
55576;BME280;41437;45.478;9.116;2023-04-09T15:32:48;99995.75;;;20.61;nan
55576;BME280;41437;45.478;9.116;2023-04-09T15:35:49;99986.00;;;20.58;nan
55576;BME280;41437;45.478;9.116;2023-04-09T15:38:53;100004.22;;;20.87;nan
55576;BME280;41437;45.478;9.116;2023-04-09T15:44:58;99991.84;;;20.88;nan
55576;BME280;41437;45.478;9.116;2023-04-09T15:51:03;100004.00;;;20.75;nan
55576;BME280;41437;45.478;9.116;2023-04-09T15:54:06;100006.94;;;20.30;nan
55576;BME280;41437;45.478;9.116;2023-04-09T15:57:10;100001.97;;;19.96;nan
55576;BME280;41437;45.478;9.116;2023-04-09T16:00:13;100005.47;;;20.01;nan
55576;BME280;41437;45.478;9.116;2023-04-09T16:03:14;100003.56;;;19.66;nan
55576;BME280;41437;45.478;9.116;2023-04-09T16:09:24;100006.22;;;20.16;nan
55576;BME280;41437;45.478;9.116;2023-04-09T16:12:25;100003.53;;;20.11;nan
55576;BME280;41437;45.478;9.116;2023-04-09T16:15:27;100002.72;;;20.10;nan
55576;BME280;41437;45.478;9.116;2023-04-09T16:27:34;100005.09;;;19.72;nan
55576;BME280;41437;45.478;9.116;2023-04-09T16:33:37;100005.63;;;19.38;nan
55576;BME280;41437;45.478;9.116;2023-04-09T16:39:42;100015.06;;;19.28;nan
55576;BME280;41437;45.478;9.116;2023-04-09T16:45:45;100013.88;;;19.06;nan
55576;BME280;41437;45.478;9.116;2023-04-09T16:48:47;100007.81;;;18.91;nan
55576;BME280;41437;45.478;9.116;2023-04-09T16:51:51;100014.63;;;18.71;nan
55576;BME280;41437;45.478;9.116;2023-04-09T16:54:56;100013.69;;;18.62;nan
55576;BME280;41437;45.478;9.116;2023-04-09T16:57:58;100018.13;;;18.49;nan
55576;BME280;41437;45.478;9.116;2023-04-09T17:00:59;100017.91;;;18.31;nan
55576;BME280;41437;45.478;9.116;2023-04-09T17:04:01;100026.25;;;18.18;nan
55576;BME280;41437;45.478;9.116;2023-04-09T17:07:03;100029.25;;;18.07;nan
55576;BME280;41437;45.478;9.116;2023-04-09T17:10:07;100022.66;;;17.84;nan
55576;BME280;41437;45.478;9.116;2023-04-09T17:13:09;100024.47;;;17.75;nan
55576;BME280;41437;45.478;9.116;2023-04-09T17:16:13;100030.66;;;17.53;nan
55576;BME280;41437;45.478;9.116;2023-04-09T17:19:17;100033.22;;;17.31;nan
55576;BME280;41437;45.478;9.116;2023-04-09T17:22:18;100033.47;;;17.16;nan
55576;BME280;41437;45.478;9.116;2023-04-09T17:25:21;100033.41;;;16.78;nan
55576;BME280;41437;45.478;9.116;2023-04-09T17:28:23;100035.72;;;16.66;nan
55576;BME280;41437;45.478;9.116;2023-04-09T17:31:24;100036.09;;;16.35;nan
55576;BME280;41437;45.478;9.116;2023-04-09T17:34:26;100020.69;;;16.19;nan
55576;BME280;41437;45.478;9.116;2023-04-09T17:37:28;100036.28;;;16.15;nan
55576;BME280;41437;45.478;9.116;2023-04-09T17:40:31;100040.81;;;16.05;nan
55576;BME280;41437;45.478;9.116;2023-04-09T17:43:33;100036.75;;;15.93;nan
55576;BME280;41437;45.478;9.116;2023-04-09T17:46:35;100046.13;;;15.73;nan
55576;BME280;41437;45.478;9.116;2023-04-09T17:49:38;100049.88;;;15.48;nan
55576;BME280;41437;45.478;9.116;2023-04-09T17:52:39;100057.72;;;15.36;nan
55576;BME280;41437;45.478;9.116;2023-04-09T17:55:45;100057.53;;;15.22;nan
55576;BME280;41437;45.478;9.116;2023-04-09T17:58:47;100062.94;;;15.03;nan
55576;BME280;41437;45.478;9.116;2023-04-09T18:01:49;100064.59;;;14.99;nan
55576;BME280;41437;45.478;9.116;2023-04-09T18:04:51;100080.97;;;15.00;nan
55576;BME280;41437;45.478;9.116;2023-04-09T18:07:53;100079.63;;;14.88;nan
55576;BME280;41437;45.478;9.116;2023-04-09T18:11:00;100083.56;;;14.76;nan
55576;BME280;41437;45.478;9.116;2023-04-09T18:14:02;100087.75;;;14.69;nan
55576;BME280;41437;45.478;9.116;2023-04-09T18:17:07;100097.69;;;14.75;nan
55576;BME280;41437;45.478;9.116;2023-04-09T18:20:09;100105.25;;;14.59;nan
55576;BME280;41437;45.478;9.116;2023-04-09T18:23:11;100108.28;;;14.68;nan
55576;BME280;41437;45.478;9.116;2023-04-09T18:26:16;100114.94;;;14.62;nan
55576;BME280;41437;45.478;9.116;2023-04-09T18:29:18;100121.06;;;14.48;nan
55576;BME280;41437;45.478;9.116;2023-04-09T18:32:19;100126.88;;;14.42;nan
55576;BME280;41437;45.478;9.116;2023-04-09T18:35:21;100100.31;;;14.15;nan
55576;BME280;41437;45.478;9.116;2023-04-09T18:38:23;100135.47;;;14.30;nan
55576;BME280;41437;45.478;9.116;2023-04-09T18:41:25;100138.25;;;14.25;nan
55576;BME280;41437;45.478;9.116;2023-04-09T18:44:30;100146.84;;;14.13;nan
55576;BME280;41437;45.478;9.116;2023-04-09T18:47:32;100142.94;;;14.14;nan
55576;BME280;41437;45.478;9.116;2023-04-09T18:50:35;100151.00;;;14.11;nan
55576;BME280;41437;45.478;9.116;2023-04-09T18:53:36;100156.53;;;14.05;nan
55576;BME280;41437;45.478;9.116;2023-04-09T18:56:39;100166.25;;;14.03;nan
55576;BME280;41437;45.478;9.116;2023-04-09T18:59:42;100168.72;;;13.99;nan
55576;BME280;41437;45.478;9.116;2023-04-09T19:02:44;100175.38;;;13.93;nan
55576;BME280;41437;45.478;9.116;2023-04-09T19:05:46;100188.13;;;13.89;nan
55576;BME280;41437;45.478;9.116;2023-04-09T19:08:48;100187.00;;;13.90;nan
55576;BME280;41437;45.478;9.116;2023-04-09T19:11:57;100200.56;;;13.92;nan
55576;BME280;41437;45.478;9.116;2023-04-09T19:15:00;100196.97;;;13.81;nan
55576;BME280;41437;45.478;9.116;2023-04-09T19:18:05;100202.19;;;13.72;nan
55576;BME280;41437;45.478;9.116;2023-04-09T19:21:07;100209.94;;;13.75;nan
55576;BME280;41437;45.478;9.116;2023-04-09T19:24:09;100211.34;;;13.73;nan
55576;BME280;41437;45.478;9.116;2023-04-09T19:27:12;100213.22;;;13.62;nan
55576;BME280;41437;45.478;9.116;2023-04-09T19:30:13;100219.63;;;13.63;nan
55576;BME280;41437;45.478;9.116;2023-04-09T19:33:15;100230.09;;;13.55;nan
55576;BME280;41437;45.478;9.116;2023-04-09T19:36:17;100225.41;;;13.56;nan
55576;BME280;41437;45.478;9.116;2023-04-09T19:39:19;100229.81;;;13.52;nan
55576;BME280;41437;45.478;9.116;2023-04-09T19:42:25;100238.66;;;13.49;nan
55576;BME280;41437;45.478;9.116;2023-04-09T19:45:27;100249.47;;;13.50;nan
55576;BME280;41437;45.478;9.116;2023-04-09T19:48:29;100259.13;;;13.48;nan
55576;BME280;41437;45.478;9.116;2023-04-09T19:51:31;100260.53;;;13.45;nan
55576;BME280;41437;45.478;9.116;2023-04-09T19:54:33;100262.16;;;13.41;nan
55576;BME280;41437;45.478;9.116;2023-04-09T19:57:36;100264.38;;;13.49;nan
55576;BME280;41437;45.478;9.116;2023-04-09T20:00:38;100276.81;;;13.37;nan
55576;BME280;41437;45.478;9.116;2023-04-09T20:03:39;100282.28;;;13.26;nan
55576;BME280;41437;45.478;9.116;2023-04-09T20:06:41;100280.28;;;13.22;nan
55576;BME280;41437;45.478;9.116;2023-04-09T20:09:43;100279.41;;;13.11;nan
55576;BME280;41437;45.478;9.116;2023-04-09T20:12:48;100277.16;;;13.08;nan
55576;BME280;41437;45.478;9.116;2023-04-09T20:15:49;100282.81;;;12.86;nan
55576;BME280;41437;45.478;9.116;2023-04-09T20:18:51;100286.31;;;12.71;nan
55576;BME280;41437;45.478;9.116;2023-04-09T20:21:53;100290.97;;;12.71;nan
55576;BME280;41437;45.478;9.116;2023-04-09T20:24:55;100290.91;;;12.61;nan
55576;BME280;41437;45.478;9.116;2023-04-09T20:27:58;100294.66;;;12.49;nan
55576;BME280;41437;45.478;9.116;2023-04-09T20:31:01;100301.75;;;12.40;nan
55576;BME280;41437;45.478;9.116;2023-04-09T20:34:02;100300.53;;;12.26;nan